Peace — WBF3649 — position and weather

sailwx.info

Track history (hours):
 
Tides and Currents Weather Stations Pressure Air Temp Water Temp Dewpoint Dewpoint Depression Visibility Wind Speed Wind Dir Waves Ship Positions

Peace

Owner: BOWMAN, ERIC L, VENTURA, CA. More information available from US FCC via Universal Licensing System and Coast Guard Vessel Documentation Center.

Last reported at 2018-Apr-23 13:00 UTC. Time now 2018-Apr-23 13:29 UTC.
Position N 34°15' W 119°16'.

Length 20 m.

Type: Diving. MMSI: 367166830.

Date/timePositionNaut miles runAvg speedWind from/ knotsBaromVisibWave heightAir tempDewpointWater temp
2018-Apr-23 13:00N 34°15' W 119°16'0 0.0
2018-Apr-23 12:30N 34°15' W 119°16'0 0.0
2018-Apr-23 11:57N 34°15' W 119°16'0 0.0
2018-Apr-23 11:30N 34°15' W 119°16'0 0.0
2018-Apr-23 11:00N 34°15' W 119°16'0 0.0
2018-Apr-23 10:30N 34°15' W 119°16'0 0.0
2018-Apr-23 09:57N 34°15' W 119°16'0 0.0
2018-Apr-23 09:30N 34°15' W 119°16'0 0.0
2018-Apr-23 09:00N 34°15' W 119°16'0 0.0
2018-Apr-23 08:30N 34°15' W 119°16'0 0.0
2018-Apr-23 07:57N 34°15' W 119°16'0 0.0
2018-Apr-23 07:30N 34°15' W 119°16'0 0.0
2018-Apr-23 06:57N 34°15' W 119°16'0 0.0
2018-Apr-23 06:30N 34°15' W 119°16'0 0.0
2018-Apr-23 06:00N 34°15' W 119°16'0 0.0
2018-Apr-23 05:27N 34°15' W 119°16'0 0.0
2018-Apr-23 05:00N 34°15' W 119°16'0 0.0
2018-Apr-23 04:30N 34°15' W 119°16'0 0.0
2018-Apr-23 04:00N 34°15' W 119°16'0 0.0
2018-Apr-23 03:30N 34°15' W 119°16'0 0.0
2018-Apr-23 02:57N 34°15' W 119°16'0 0.0
2018-Apr-23 02:21N 34°15' W 119°16'0 0.0
2018-Apr-23 01:51N 34°15' W 119°16'0 0.0
2018-Apr-23 01:21N 34°15' W 119°16'2 4.6
2018-Apr-23 01:00N 34°14' W 119°18'6 9.4
2018-Apr-23 00:22N 34°10' W 119°23'3 9.5
2018-Apr-23 00:00N 34°07' W 119°25'5 9.8
2018-Apr-22 23:27N 34°03' W 119°30'2 0.3
2018-Apr-22 18:20N 34°02' W 119°31'3 6.9
2018-Apr-22 17:55N 34°03' W 119°35'0 0.0
2018-Apr-22 17:29N 34°03' W 119°35'0 0.0
2018-Apr-22 16:59N 34°03' W 119°35'0 0.0
2018-Apr-22 16:27N 34°03' W 119°35'3 6.0
2018-Apr-22 15:59N 34°04' W 119°31'4 8.9
2018-Apr-22 15:30N 34°06' W 119°27'5 9.2
2018-Apr-22 15:00N 34°10' W 119°23'5 9.4
2018-Apr-22 14:27N 34°13' W 119°19'3 4.7
2018-Apr-22 13:52N 34°15' W 119°16'0 0.0
2018-Apr-22 12:22N 34°15' W 119°16'0 0.0
2018-Apr-22 11:58N 34°15' W 119°16'0 0.0
2018-Apr-22 11:28N 34°15' W 119°16'0 0.0
2018-Apr-22 10:55N 34°15' W 119°16'0 0.0
2018-Apr-22 10:16N 34°15' W 119°16'0 0.0
2018-Apr-22 09:49N 34°15' W 119°16'0 0.0
2018-Apr-22 09:13N 34°15' W 119°16'0 0.0
2018-Apr-22 08:37N 34°15' W 119°16'0 0.0
2018-Apr-22 08:28N 34°15' W 119°16'0 0.0
2018-Apr-22 05:07N 34°15' W 119°16'0 0.0
2018-Apr-22 04:55N 34°15' W 119°16'0 0.0
2018-Apr-22 04:28N 34°15' W 119°16'0 0.0
2018-Apr-22 03:19N 34°15' W 119°16'0 1.1
2018-Apr-22 02:59N 34°15' W 119°16'5 9.4
2018-Apr-22 02:28N 34°14' W 119°22'4 9.4
2018-Apr-22 02:00N 34°13' W 119°27'5 9.4
2018-Apr-22 01:28N 34°12' W 119°33'5 9.4
2018-Apr-22 00:56N 34°10' W 119°39'4 9.6
2018-Apr-22 00:30N 34°09' W 119°44'6 9.9
2018-Apr-21 23:57N 34°08' W 119°50'7 9.9
2018-Apr-21 23:13N 34°06' W 119°59'3 9.8
2018-Apr-21 22:54N 34°05' W 120°02'510.0
2018-Apr-21 22:25N 34°04' W 120°08'5 9.4
2018-Apr-21 21:56N 34°02' W 120°13'4 9.6
2018-Apr-21 21:30N 34°01' W 120°18'2 0.2
2018-Apr-21 13:57N 33°60' W 120°19'41 8.4
2018-Apr-21 09:06N 34°02' W 119°30'1 8.3
2018-Apr-21 09:00N 34°02' W 119°29'4 8.3
2018-Apr-21 08:30N 34°05' W 119°26'4 8.9
2018-Apr-21 08:00N 34°09' W 119°23'6 9.3
2018-Apr-21 07:22N 34°13' W 119°18'2 3.7
2018-Apr-21 06:47N 34°15' W 119°16'0 0.0
2018-Apr-21 06:29N 34°15' W 119°16'0 0.0
2018-Apr-21 05:59N 34°15' W 119°16'0 0.0
2018-Apr-21 05:29N 34°15' W 119°16'0 0.0
2018-Apr-21 04:53N 34°15' W 119°16'0 0.0
2018-Apr-21 04:29N 34°15' W 119°16'0 0.0
2018-Apr-21 03:59N 34°15' W 119°16'0 0.0
2018-Apr-21 03:29N 34°15' W 119°16'0 0.0
2018-Apr-21 02:41N 34°15' W 119°16'0 0.0
2018-Apr-21 02:29N 34°15' W 119°16'0 0.0
2018-Apr-21 01:59N 34°15' W 119°16'0 0.0
2018-Apr-21 01:29N 34°15' W 119°16'0 0.0
2018-Apr-21 00:53N 34°15' W 119°16'0 0.8
2018-Apr-21 00:30N 34°15' W 119°16'6 8.7
2018-Apr-20 23:49N 34°11' W 119°21'3 9.5
2018-Apr-20 23:29N 34°09' W 119°24'9 0.9
2018-Apr-20 13:36N 34°01' W 119°30'110.6
2018-Apr-20 13:28N 34°02' W 119°30'5 9.4
2018-Apr-20 12:59N 34°06' W 119°27'5 9.3
2018-Apr-20 12:27N 34°10' W 119°23'5 9.6
2018-Apr-20 11:56N 34°13' W 119°18'2 4.8
2018-Apr-20 11:25N 34°15' W 119°16'0 0.0
2018-Apr-20 10:58N 34°15' W 119°16'0 0.0
2018-Apr-20 10:25N 34°15' W 119°16'0 0.0
2018-Apr-20 09:55N 34°15' W 119°16'0 0.0
2018-Apr-20 09:28N 34°15' W 119°16'0 0.0
2018-Apr-20 08:58N 34°15' W 119°16'0 0.0
2018-Apr-20 08:28N 34°15' W 119°16'0 0.0
2018-Apr-20 07:55N 34°15' W 119°16'0 0.0
2018-Apr-20 07:22N 34°15' W 119°16'0 0.0
2018-Apr-20 06:55N 34°15' W 119°16'0 0.0
2018-Apr-20 06:22N 34°15' W 119°16'0 0.0
2018-Apr-20 05:58N 34°15' W 119°16'0 0.0
2018-Apr-20 05:25N 34°15' W 119°16'0 0.0
2018-Apr-20 04:55N 34°15' W 119°16'0 0.0
2018-Apr-19 05:10N 34°15' W 119°16'0 0.0
2018-Apr-19 04:58N 34°15' W 119°16'0 0.0
2018-Apr-19 04:28N 34°15' W 119°16'0 0.0
2018-Apr-19 03:58N 34°15' W 119°16'0 0.0
2018-Apr-19 03:28N 34°15' W 119°16'0 0.0
2018-Apr-19 02:58N 34°15' W 119°16'1 1.3
2018-Apr-19 02:30N 34°15' W 119°17'0 0.4
2018-Apr-19 01:55N 34°15' W 119°16'0 0.1
2018-Apr-19 01:27N 34°15' W 119°16'0 0.0
2018-Apr-19 00:59N 34°15' W 119°16'1 0.6
2018-Apr-18 23:59N 34°15' W 119°16'0 0.0
2018-Apr-18 23:23N 34°15' W 119°16'0 0.0
2018-Apr-18 22:59N 34°15' W 119°16'2 0.3
2018-Apr-18 15:21N 34°16' W 119°18'2 0.2
2018-Apr-18 04:33N 34°15' W 119°16'0 0.0
2018-Apr-18 04:03N 34°15' W 119°16'0 0.0
2018-Apr-18 03:51N 34°15' W 119°16'0 0.0
2018-Apr-18 03:15N 34°15' W 119°16'0 0.0
2018-Apr-18 02:57N 34°15' W 119°16'0 0.0
2018-Apr-18 02:15N 34°15' W 119°16'0 0.0
2018-Apr-18 01:45N 34°15' W 119°16'0 0.0
2018-Apr-17 19:51N 34°15' W 119°16'0 0.0
2018-Apr-17 19:30N 34°15' W 119°16'0 0.0
2018-Apr-17 19:00N 34°15' W 119°16'0 0.0
2018-Apr-17 18:27N 34°15' W 119°16'0 0.0
2018-Apr-17 17:57N 34°15' W 119°16'0 0.0
2018-Apr-17 17:21N 34°15' W 119°16'0 0.0
2018-Apr-17 16:57N 34°15' W 119°16'0 0.0
2018-Apr-17 16:24N 34°15' W 119°16'0 0.0
2018-Apr-17 15:57N 34°15' W 119°16'0 0.0
2018-Apr-17 15:30N 34°15' W 119°16'0 0.0
2018-Apr-17 14:57N 34°15' W 119°16'0 0.0
2018-Apr-17 14:27N 34°15' W 119°16'0 0.0
2018-Apr-17 14:00N 34°15' W 119°16'0 0.0
2018-Apr-17 13:30N 34°15' W 119°16'0 0.0
2018-Apr-17 13:00N 34°15' W 119°16'0 0.0
2018-Apr-17 12:30N 34°15' W 119°16'0 0.0
2018-Apr-17 11:48N 34°15' W 119°16'0 0.0
2018-Apr-17 10:18N 34°15' W 119°16'0 0.0
2018-Apr-17 09:18N 34°15' W 119°16'0 0.0
2018-Apr-17 08:48N 34°15' W 119°16'0 0.0
2018-Apr-16 11:35N 34°15' W 119°16'0 0.0
2018-Apr-16 11:29N 34°15' W 119°16'0 0.0
2018-Apr-16 10:41N 34°15' W 119°16'0 0.0
2018-Apr-16 10:17N 34°15' W 119°16'0 0.0
2018-Apr-16 09:59N 34°15' W 119°16'0 0.0
2018-Apr-16 09:29N 34°15' W 119°16'0 0.0
2018-Apr-16 08:47N 34°15' W 119°16'0 0.0
2018-Apr-16 08:29N 34°15' W 119°16'0 0.0
2018-Apr-16 07:59N 34°15' W 119°16'0 0.0
2018-Apr-16 07:29N 34°15' W 119°16'0 0.0
2018-Apr-16 06:59N 34°15' W 119°16'0 0.0
2018-Apr-16 06:23N 34°15' W 119°16'0 0.0
2018-Apr-16 05:53N 34°15' W 119°16'0 0.0
2018-Apr-16 05:29N 34°15' W 119°16'0 0.0
2018-Apr-16 04:59N 34°15' W 119°16'0 0.0
2018-Apr-16 04:29N 34°15' W 119°16'0 0.0
2018-Apr-16 03:59N 34°15' W 119°16'0 0.0
2018-Apr-16 03:29N 34°15' W 119°16'0 0.0
2018-Apr-16 02:59N 34°15' W 119°16'0 0.0
2018-Apr-16 02:29N 34°15' W 119°16'0 0.0
2018-Apr-16 01:53N 34°15' W 119°16'0 0.0
2018-Apr-16 01:29N 34°15' W 119°16'0 0.0
2018-Apr-16 00:59N 34°15' W 119°16'0 0.0
2018-Apr-16 00:23N 34°15' W 119°16'0 0.0
2018-Apr-15 23:56N 34°15' W 119°16'3 6.1
2018-Apr-15 23:29N 34°13' W 119°18'5 9.1
2018-Apr-15 22:56N 34°08' W 119°21'4 8.7
2018-Apr-15 22:30N 34°05' W 119°23'4 7.6
2018-Apr-15 21:56N 34°01' W 119°25'0 0.0
2018-Apr-15 21:09N 34°01' W 119°25'0 0.0
2018-Apr-15 20:54N 34°01' W 119°25'1 1.7
2018-Apr-15 20:30N 34°01' W 119°26'0 0.1
2018-Apr-15 16:25N 34°01' W 119°27'4 8.9
2018-Apr-15 16:00N 34°04' W 119°24'5 9.6
2018-Apr-15 15:30N 34°08' W 119°22'6 9.5
2018-Apr-15 14:53N 34°13' W 119°18'2 5.6
2018-Apr-15 14:28N 34°15' W 119°16'0 0.0
2018-Apr-15 13:58N 34°15' W 119°16'0 0.0
2018-Apr-15 13:28N 34°15' W 119°16'0 0.0
2018-Apr-15 12:58N 34°15' W 119°16'0 0.0
2018-Apr-15 12:28N 34°15' W 119°16'0 0.0
2018-Apr-15 11:40N 34°15' W 119°16'0 0.0
2018-Apr-15 11:22N 34°15' W 119°16'0 0.0
2018-Apr-15 10:58N 34°15' W 119°16'0 0.0
2018-Apr-15 10:19N 34°15' W 119°16'0 0.0
2018-Apr-15 09:52N 34°15' W 119°16'0 0.0
2018-Apr-15 09:10N 34°15' W 119°16'0 0.0
2018-Apr-15 08:58N 34°15' W 119°16'0 0.0
2018-Apr-15 08:19N 34°15' W 119°16'0 0.0
2018-Apr-15 07:58N 34°15' W 119°16'0 0.0
2018-Apr-15 07:13N 34°15' W 119°16'0 0.0
2018-Apr-15 06:49N 34°15' W 119°16'0 0.0
2018-Apr-15 06:19N 34°15' W 119°16'0 0.0
2018-Apr-15 05:49N 34°15' W 119°16'0 0.0
2018-Apr-15 04:46N 34°15' W 119°16'0 0.0
2018-Apr-15 02:16N 34°15' W 119°16'0 0.0
2018-Apr-15 01:55N 34°15' W 119°16'0 0.0
2018-Apr-14 23:52N 34°15' W 119°16'0 0.0
2018-Apr-14 23:28N 34°15' W 119°16'0 0.0
2018-Apr-14 22:58N 34°15' W 119°16'5 7.6
2018-Apr-14 22:17N 34°11' W 119°21'6 9.5
2018-Apr-14 21:39N 34°07' W 119°26'210.0
2018-Apr-14 21:24N 34°05' W 119°28'3 0.3
2018-Apr-14 12:53N 34°03' W 119°30'4 9.3
2018-Apr-14 12:30N 34°06' W 119°27'13 1.7
2018-Apr-14 04:53N 34°15' W 119°16'0 0.0
2018-Apr-14 04:26N 34°15' W 119°16'0 0.0
2018-Apr-14 03:35N 34°15' W 119°16'0 0.1
2018-Apr-14 03:29N 34°15' W 119°16'0 0.0
2018-Apr-14 02:41N 34°15' W 119°16'0 0.0
2018-Apr-14 02:29N 34°15' W 119°16'0 0.0
2018-Apr-14 01:41N 34°15' W 119°16'0 0.0
2018-Apr-14 01:23N 34°15' W 119°16'0 0.0
2018-Apr-14 00:47N 34°15' W 119°16'0 0.0
2018-Apr-14 00:23N 34°15' W 119°16'0 0.0
2018-Apr-13 23:53N 34°15' W 119°16'0 0.0
2018-Apr-13 20:38N 34°15' W 119°16'0 0.0
2018-Apr-13 20:26N 34°15' W 119°16'0 0.0
2018-Apr-13 19:56N 34°15' W 119°16'0 0.0
2018-Apr-13 19:29N 34°15' W 119°16'0 0.0
2018-Apr-13 18:56N 34°15' W 119°16'0 0.0
2018-Apr-13 18:23N 34°15' W 119°16'0 0.0
2018-Apr-13 17:53N 34°15' W 119°16'0 0.0
2018-Apr-13 17:29N 34°15' W 119°16'0 0.0
2018-Apr-13 16:53N 34°15' W 119°16'0 0.0
2018-Apr-13 16:29N 34°15' W 119°16'0 0.0
2018-Apr-13 15:53N 34°15' W 119°16'0 0.0
2018-Apr-13 15:29N 34°15' W 119°16'0 0.0
2018-Apr-13 14:41N 34°15' W 119°16'0 0.0
2018-Apr-13 14:29N 34°15' W 119°16'0 0.0
2018-Apr-13 13:53N 34°15' W 119°16'0 0.0
2018-Apr-13 13:26N 34°15' W 119°16'  
Track history (hours):
 
Tides and Currents Weather Stations Pressure Air Temp Water Temp Dewpoint Dewpoint Depression Visibility Wind Speed Wind Dir Waves Ship Positions

Peace

Owner: BOWMAN, ERIC L, VENTURA, CA. More information available from US FCC via Universal Licensing System and Coast Guard Vessel Documentation Center.

Last reported at 2018-Apr-23 13:00 UTC. Time now 2018-Apr-23 13:29 UTC.
Position N 34°15' W 119°16'.

Length 20 m.

Type: Diving. MMSI: 367166830.

Date/timePositionNaut miles runAvg speedWind from/ knotsBaromVisibWave heightAir tempDewpointWater temp
2018-Apr-23 13:00N 34°15' W 119°16'0 0.0
2018-Apr-23 12:30N 34°15' W 119°16'0 0.0
2018-Apr-23 11:57N 34°15' W 119°16'0 0.0
2018-Apr-23 11:30N 34°15' W 119°16'0 0.0
2018-Apr-23 11:00N 34°15' W 119°16'0 0.0
2018-Apr-23 10:30N 34°15' W 119°16'0 0.0
2018-Apr-23 09:57N 34°15' W 119°16'0 0.0
2018-Apr-23 09:30N 34°15' W 119°16'0 0.0
2018-Apr-23 09:00N 34°15' W 119°16'0 0.0
2018-Apr-23 08:30N 34°15' W 119°16'0 0.0
2018-Apr-23 07:57N 34°15' W 119°16'0 0.0
2018-Apr-23 07:30N 34°15' W 119°16'0 0.0
2018-Apr-23 06:57N 34°15' W 119°16'0 0.0
2018-Apr-23 06:30N 34°15' W 119°16'0 0.0
2018-Apr-23 06:00N 34°15' W 119°16'0 0.0
2018-Apr-23 05:27N 34°15' W 119°16'0 0.0
2018-Apr-23 05:00N 34°15' W 119°16'0 0.0
2018-Apr-23 04:30N 34°15' W 119°16'0 0.0
2018-Apr-23 04:00N 34°15' W 119°16'0 0.0
2018-Apr-23 03:30N 34°15' W 119°16'0 0.0
2018-Apr-23 02:57N 34°15' W 119°16'0 0.0
2018-Apr-23 02:21N 34°15' W 119°16'0 0.0
2018-Apr-23 01:51N 34°15' W 119°16'0 0.0
2018-Apr-23 01:21N 34°15' W 119°16'2 4.6
2018-Apr-23 01:00N 34°14' W 119°18'6 9.4
2018-Apr-23 00:22N 34°10' W 119°23'3 9.5
2018-Apr-23 00:00N 34°07' W 119°25'5 9.8
2018-Apr-22 23:27N 34°03' W 119°30'2 0.3
2018-Apr-22 18:20N 34°02' W 119°31'3 6.9
2018-Apr-22 17:55N 34°03' W 119°35'0 0.0
2018-Apr-22 17:29N 34°03' W 119°35'0 0.0
2018-Apr-22 16:59N 34°03' W 119°35'0 0.0
2018-Apr-22 16:27N 34°03' W 119°35'3 6.0
2018-Apr-22 15:59N 34°04' W 119°31'4 8.9
2018-Apr-22 15:30N 34°06' W 119°27'5 9.2
2018-Apr-22 15:00N 34°10' W 119°23'5 9.4
2018-Apr-22 14:27N 34°13' W 119°19'3 4.7
2018-Apr-22 13:52N 34°15' W 119°16'0 0.0
2018-Apr-22 12:22N 34°15' W 119°16'0 0.0
2018-Apr-22 11:58N 34°15' W 119°16'0 0.0
2018-Apr-22 11:28N 34°15' W 119°16'0 0.0
2018-Apr-22 10:55N 34°15' W 119°16'0 0.0
2018-Apr-22 10:16N 34°15' W 119°16'0 0.0
2018-Apr-22 09:49N 34°15' W 119°16'0 0.0
2018-Apr-22 09:13N 34°15' W 119°16'0 0.0
2018-Apr-22 08:37N 34°15' W 119°16'0 0.0
2018-Apr-22 08:28N 34°15' W 119°16'0 0.0
2018-Apr-22 05:07N 34°15' W 119°16'0 0.0
2018-Apr-22 04:55N 34°15' W 119°16'0 0.0
2018-Apr-22 04:28N 34°15' W 119°16'0 0.0
2018-Apr-22 03:19N 34°15' W 119°16'0 1.1
2018-Apr-22 02:59N 34°15' W 119°16'5 9.4
2018-Apr-22 02:28N 34°14' W 119°22'4 9.4
2018-Apr-22 02:00N 34°13' W 119°27'5 9.4
2018-Apr-22 01:28N 34°12' W 119°33'5 9.4
2018-Apr-22 00:56N 34°10' W 119°39'4 9.6
2018-Apr-22 00:30N 34°09' W 119°44'6 9.9
2018-Apr-21 23:57N 34°08' W 119°50'7 9.9
2018-Apr-21 23:13N 34°06' W 119°59'3 9.8
2018-Apr-21 22:54N 34°05' W 120°02'510.0
2018-Apr-21 22:25N 34°04' W 120°08'5 9.4
2018-Apr-21 21:56N 34°02' W 120°13'4 9.6
2018-Apr-21 21:30N 34°01' W 120°18'2 0.2
2018-Apr-21 13:57N 33°60' W 120°19'41 8.4
2018-Apr-21 09:06N 34°02' W 119°30'1 8.3
2018-Apr-21 09:00N 34°02' W 119°29'4 8.3
2018-Apr-21 08:30N 34°05' W 119°26'4 8.9
2018-Apr-21 08:00N 34°09' W 119°23'6 9.3
2018-Apr-21 07:22N 34°13' W 119°18'2 3.7
2018-Apr-21 06:47N 34°15' W 119°16'0 0.0
2018-Apr-21 06:29N 34°15' W 119°16'0 0.0
2018-Apr-21 05:59N 34°15' W 119°16'0 0.0
2018-Apr-21 05:29N 34°15' W 119°16'0 0.0
2018-Apr-21 04:53N 34°15' W 119°16'0 0.0
2018-Apr-21 04:29N 34°15' W 119°16'0 0.0
2018-Apr-21 03:59N 34°15' W 119°16'0 0.0
2018-Apr-21 03:29N 34°15' W 119°16'0 0.0
2018-Apr-21 02:41N 34°15' W 119°16'0 0.0
2018-Apr-21 02:29N 34°15' W 119°16'0 0.0
2018-Apr-21 01:59N 34°15' W 119°16'0 0.0
2018-Apr-21 01:29N 34°15' W 119°16'0 0.0
2018-Apr-21 00:53N 34°15' W 119°16'0 0.8
2018-Apr-21 00:30N 34°15' W 119°16'6 8.7
2018-Apr-20 23:49N 34°11' W 119°21'3 9.5
2018-Apr-20 23:29N 34°09' W 119°24'9 0.9
2018-Apr-20 13:36N 34°01' W 119°30'110.6
2018-Apr-20 13:28N 34°02' W 119°30'5 9.4
2018-Apr-20 12:59N 34°06' W 119°27'5 9.3
2018-Apr-20 12:27N 34°10' W 119°23'5 9.6
2018-Apr-20 11:56N 34°13' W 119°18'2 4.8
2018-Apr-20 11:25N 34°15' W 119°16'0 0.0
2018-Apr-20 10:58N 34°15' W 119°16'0 0.0
2018-Apr-20 10:25N 34°15' W 119°16'0 0.0
2018-Apr-20 09:55N 34°15' W 119°16'0 0.0
2018-Apr-20 09:28N 34°15' W 119°16'0 0.0
2018-Apr-20 08:58N 34°15' W 119°16'0 0.0
2018-Apr-20 08:28N 34°15' W 119°16'0 0.0
2018-Apr-20 07:55N 34°15' W 119°16'0 0.0
2018-Apr-20 07:22N 34°15' W 119°16'0 0.0
2018-Apr-20 06:55N 34°15' W 119°16'0 0.0
2018-Apr-20 06:22N 34°15' W 119°16'0 0.0
2018-Apr-20 05:58N 34°15' W 119°16'0 0.0
2018-Apr-20 05:25N 34°15' W 119°16'0 0.0
2018-Apr-20 04:55N 34°15' W 119°16'0 0.0
2018-Apr-19 05:10N 34°15' W 119°16'0 0.0
2018-Apr-19 04:58N 34°15' W 119°16'0 0.0
2018-Apr-19 04:28N 34°15' W 119°16'0 0.0
2018-Apr-19 03:58N 34°15' W 119°16'0 0.0
2018-Apr-19 03:28N 34°15' W 119°16'0 0.0
2018-Apr-19 02:58N 34°15' W 119°16'1 1.3
2018-Apr-19 02:30N 34°15' W 119°17'0 0.4
2018-Apr-19 01:55N 34°15' W 119°16'0 0.1
2018-Apr-19 01:27N 34°15' W 119°16'0 0.0
2018-Apr-19 00:59N 34°15' W 119°16'1 0.6
2018-Apr-18 23:59N 34°15' W 119°16'0 0.0
2018-Apr-18 23:23N 34°15' W 119°16'0 0.0
2018-Apr-18 22:59N 34°15' W 119°16'2 0.3
2018-Apr-18 15:21N 34°16' W 119°18'2 0.2
2018-Apr-18 04:33N 34°15' W 119°16'0 0.0
2018-Apr-18 04:03N 34°15' W 119°16'0 0.0
2018-Apr-18 03:51N 34°15' W 119°16'0 0.0
2018-Apr-18 03:15N 34°15' W 119°16'0 0.0
2018-Apr-18 02:57N 34°15' W 119°16'0 0.0
2018-Apr-18 02:15N 34°15' W 119°16'0 0.0
2018-Apr-18 01:45N 34°15' W 119°16'0 0.0
2018-Apr-17 19:51N 34°15' W 119°16'0 0.0
2018-Apr-17 19:30N 34°15' W 119°16'0 0.0
2018-Apr-17 19:00N 34°15' W 119°16'0 0.0
2018-Apr-17 18:27N 34°15' W 119°16'0 0.0
2018-Apr-17 17:57N 34°15' W 119°16'0 0.0
2018-Apr-17 17:21N 34°15' W 119°16'0 0.0
2018-Apr-17 16:57N 34°15' W 119°16'0 0.0
2018-Apr-17 16:24N 34°15' W 119°16'0 0.0
2018-Apr-17 15:57N 34°15' W 119°16'0 0.0
2018-Apr-17 15:30N 34°15' W 119°16'0 0.0
2018-Apr-17 14:57N 34°15' W 119°16'0 0.0
2018-Apr-17 14:27N 34°15' W 119°16'0 0.0
2018-Apr-17 14:00N 34°15' W 119°16'0 0.0
2018-Apr-17 13:30N 34°15' W 119°16'0 0.0
2018-Apr-17 13:00N 34°15' W 119°16'0 0.0
2018-Apr-17 12:30N 34°15' W 119°16'0 0.0
2018-Apr-17 11:48N 34°15' W 119°16'0 0.0
2018-Apr-17 10:18N 34°15' W 119°16'0 0.0
2018-Apr-17 09:18N 34°15' W 119°16'0 0.0
2018-Apr-17 08:48N 34°15' W 119°16'0 0.0
2018-Apr-16 11:35N 34°15' W 119°16'0 0.0
2018-Apr-16 11:29N 34°15' W 119°16'0 0.0
2018-Apr-16 10:41N 34°15' W 119°16'0 0.0
2018-Apr-16 10:17N 34°15' W 119°16'0 0.0
2018-Apr-16 09:59N 34°15' W 119°16'0 0.0
2018-Apr-16 09:29N 34°15' W 119°16'0 0.0
2018-Apr-16 08:47N 34°15' W 119°16'0 0.0
2018-Apr-16 08:29N 34°15' W 119°16'0 0.0
2018-Apr-16 07:59N 34°15' W 119°16'0 0.0
2018-Apr-16 07:29N 34°15' W 119°16'0 0.0
2018-Apr-16 06:59N 34°15' W 119°16'0 0.0
2018-Apr-16 06:23N 34°15' W 119°16'0 0.0
2018-Apr-16 05:53N 34°15' W 119°16'0 0.0
2018-Apr-16 05:29N 34°15' W 119°16'0 0.0
2018-Apr-16 04:59N 34°15' W 119°16'0 0.0
2018-Apr-16 04:29N 34°15' W 119°16'0 0.0
2018-Apr-16 03:59N 34°15' W 119°16'0 0.0
2018-Apr-16 03:29N 34°15' W 119°16'0 0.0
2018-Apr-16 02:59N 34°15' W 119°16'0 0.0
2018-Apr-16 02:29N 34°15' W 119°16'0 0.0
2018-Apr-16 01:53N 34°15' W 119°16'0 0.0
2018-Apr-16 01:29N 34°15' W 119°16'0 0.0
2018-Apr-16 00:59N 34°15' W 119°16'0 0.0
2018-Apr-16 00:23N 34°15' W 119°16'0 0.0
2018-Apr-15 23:56N 34°15' W 119°16'3 6.1
2018-Apr-15 23:29N 34°13' W 119°18'5 9.1
2018-Apr-15 22:56N 34°08' W 119°21'4 8.7
2018-Apr-15 22:30N 34°05' W 119°23'4 7.6
2018-Apr-15 21:56N 34°01' W 119°25'0 0.0
2018-Apr-15 21:09N 34°01' W 119°25'0 0.0
2018-Apr-15 20:54N 34°01' W 119°25'1 1.7
2018-Apr-15 20:30N 34°01' W 119°26'0 0.1
2018-Apr-15 16:25N 34°01' W 119°27'4 8.9
2018-Apr-15 16:00N 34°04' W 119°24'5 9.6
2018-Apr-15 15:30N 34°08' W 119°22'6 9.5
2018-Apr-15 14:53N 34°13' W 119°18'2 5.6
2018-Apr-15 14:28N 34°15' W 119°16'0 0.0
2018-Apr-15 13:58N 34°15' W 119°16'0 0.0
2018-Apr-15 13:28N 34°15' W 119°16'0 0.0
2018-Apr-15 12:58N 34°15' W 119°16'0 0.0
2018-Apr-15 12:28N 34°15' W 119°16'0 0.0
2018-Apr-15 11:40N 34°15' W 119°16'0 0.0
2018-Apr-15 11:22N 34°15' W 119°16'0 0.0
2018-Apr-15 10:58N 34°15' W 119°16'0 0.0
2018-Apr-15 10:19N 34°15' W 119°16'0 0.0
2018-Apr-15 09:52N 34°15' W 119°16'0 0.0
2018-Apr-15 09:10N 34°15' W 119°16'0 0.0
2018-Apr-15 08:58N 34°15' W 119°16'0 0.0
2018-Apr-15 08:19N 34°15' W 119°16'0 0.0
2018-Apr-15 07:58N 34°15' W 119°16'0 0.0
2018-Apr-15 07:13N 34°15' W 119°16'0 0.0
2018-Apr-15 06:49N 34°15' W 119°16'0 0.0
2018-Apr-15 06:19N 34°15' W 119°16'0 0.0
2018-Apr-15 05:49N 34°15' W 119°16'0 0.0
2018-Apr-15 04:46N 34°15' W 119°16'0 0.0
2018-Apr-15 02:16N 34°15' W 119°16'0 0.0
2018-Apr-15 01:55N 34°15' W 119°16'0 0.0
2018-Apr-14 23:52N 34°15' W 119°16'0 0.0
2018-Apr-14 23:28N 34°15' W 119°16'0 0.0
2018-Apr-14 22:58N 34°15' W 119°16'5 7.6
2018-Apr-14 22:17N 34°11' W 119°21'6 9.5
2018-Apr-14 21:39N 34°07' W 119°26'210.0
2018-Apr-14 21:24N 34°05' W 119°28'3 0.3
2018-Apr-14 12:53N 34°03' W 119°30'4 9.3
2018-Apr-14 12:30N 34°06' W 119°27'13 1.7
2018-Apr-14 04:53N 34°15' W 119°16'0 0.0
2018-Apr-14 04:26N 34°15' W 119°16'0 0.0
2018-Apr-14 03:35N 34°15' W 119°16'0 0.1
2018-Apr-14 03:29N 34°15' W 119°16'0 0.0
2018-Apr-14 02:41N 34°15' W 119°16'0 0.0
2018-Apr-14 02:29N 34°15' W 119°16'0 0.0
2018-Apr-14 01:41N 34°15' W 119°16'0 0.0
2018-Apr-14 01:23N 34°15' W 119°16'0 0.0
2018-Apr-14 00:47N 34°15' W 119°16'0 0.0
2018-Apr-14 00:23N 34°15' W 119°16'0 0.0
2018-Apr-13 23:53N 34°15' W 119°16'0 0.0
2018-Apr-13 20:38N 34°15' W 119°16'0 0.0
2018-Apr-13 20:26N 34°15' W 119°16'0 0.0
2018-Apr-13 19:56N 34°15' W 119°16'0 0.0
2018-Apr-13 19:29N 34°15' W 119°16'0 0.0
2018-Apr-13 18:56N 34°15' W 119°16'0 0.0
2018-Apr-13 18:23N 34°15' W 119°16'0 0.0
2018-Apr-13 17:53N 34°15' W 119°16'0 0.0
2018-Apr-13 17:29N 34°15' W 119°16'0 0.0
2018-Apr-13 16:53N 34°15' W 119°16'0 0.0
2018-Apr-13 16:29N 34°15' W 119°16'0 0.0
2018-Apr-13 15:53N 34°15' W 119°16'0 0.0
2018-Apr-13 15:29N 34°15' W 119°16'0 0.0
2018-Apr-13 14:41N 34°15' W 119°16'0 0.0
2018-Apr-13 14:29N 34°15' W 119°16'0 0.0
2018-Apr-13 13:53N 34°15' W 119°16'0 0.0
2018-Apr-13 13:26N 34°15' W 119°16'  

Dump ship's entire track history